Camp Murray, Washington
Current Conditions -  °F | °C
As of 3:53 AM on Thursday 27 Nov 2014 (Local Time) from KTIW Reporting Station
Light Rain Light Rain  
Wind Chill: 52°   Ceiling: 2900
Heat Index: 52°   Visibility: 10mi
Dew Point: 48°   Wind: 16mph
Humidity: 86%   Direction: 180°S
Pressure: 29.86"   Gusts: 28mph
Location:  47.25°N, 122.44°W
Report Text: KTIW 271153Z AUTO 18014G24KT 10SM -RA BKN029 OVC039 11/09 A2986 RMK AO2 RAB1058 SLP111 P0005 60008 70008 T01110089 10144 20111 58009 $
Loading
Personal Weather Stations






























Interactive Weather Map New forecast layout! Learn more

10-Day Weather Forecast

Advertisements
Track Severe Weather on mobile